Ellisburg, Pennsylvania
Current Conditions -  °F | °C
As of 5:33 PM on Tuesday 21 Oct 2014 (Local Time) from KELZ Reporting Station
Light Rain Light Rain  
Wind Chill: 47°   Ceiling: 3600
Heat Index: 49°   Visibility: 10mi
Dew Point: 46°   Wind: 5mph
Humidity: 90%   Direction: 330°NNW
Pressure: 29.91"   Gusts: NA
Location:  41.915°N, 77.8855°W
Report Text: KELZ 212133Z AUTO 33004KT 10SM -RA FEW005 BKN036 OVC048 09/08 A2991 RMK AO2 P0006 T00940078
Loading
Personal Weather Stations






























Interactive Weather Map
Tropical Storm Tracking
New forecast layout! Learn more

10-Day Weather Forecast

Advertisements
Track Severe Weather on mobile